Time;durP1;ratioP1;P1;durP2;ratioP2;P2;SDS_P1;SDS_P2;PMS_P1;PMS_P2;Temp;Humidity;BMP_temperature;BMP_pressure;BME280_temperature;BME280_humidity;BME280_pressure;Samples;Min_cycle;Max_cycle;Signal;HPM_P1;HPM_P2
2021/04/30 00:01:38;;;;;;;1.67;1.67;;;;;;;5.50;53.41;101370.50;6310419;28;20459;-73
2021/04/30 00:04:41;;;;;;;2.10;1.53;;;;;;;5.48;52.45;101373.38;6313577;28;20262;-73
2021/04/30 00:07:45;;;;;;;4.60;1.70;;;;;;;5.63;52.58;101378.94;6315186;28;20262;-73
2021/04/30 00:10:48;;;;;;;1.60;1.37;;;;;;;5.57;53.14;101372.34;6316172;28;20225;-73
2021/04/30 00:13:51;;;;;;;1.60;1.60;;;;;;;5.55;52.81;101365.41;6313799;28;20299;-73
2021/04/30 00:16:55;;;;;;;3.03;1.73;;;;;;;5.63;52.40;101360.00;6314675;28;20391;-73
2021/04/30 00:19:59;;;;;;;1.67;1.67;;;;;;;5.59;52.85;101369.50;6314634;28;20197;-73
2021/04/30 00:23:03;;;;;;;1.67;1.67;;;;;;;5.56;52.91;101364.41;6314418;28;20514;-73
2021/04/30 00:26:07;;;;;;;3.20;2.17;;;;;;;5.56;53.27;101364.41;6315463;28;20195;-73
2021/04/30 00:29:11;;;;;;;5.17;1.90;;;;;;;5.36;53.86;101369.34;6315447;28;20244;-73
2021/04/30 00:32:14;;;;;;;1.93;1.60;;;;;;;5.40;53.11;101369.84;6315731;28;20231;-73
2021/04/30 00:35:18;;;;;;;1.70;1.40;;;;;;;5.23;54.13;101362.75;6314149;28;20236;-73
2021/04/30 00:38:21;;;;;;;1.80;1.70;;;;;;;4.82;54.91;101349.22;6314224;28;20386;-73
2021/04/30 00:41:26;;;;;;;1.40;1.40;;;;;;;4.57;54.27;101361.00;6314617;28;20216;-73
2021/04/30 00:44:33;;;;;;;2.87;1.37;;;;;;;4.55;53.62;101354.91;6314441;28;20236;-73
2021/04/30 00:47:38;;;;;;;2.17;1.30;;;;;;;4.40;54.23;101354.72;6314024;28;20407;-71
2021/04/30 00:50:41;;;;;;;1.23;1.23;;;;;;;4.31;54.57;101352.97;6312770;28;20205;-73
2021/04/30 00:53:44;;;;;;;1.33;1.30;;;;;;;4.08;55.81;101338.41;6315061;28;20247;-72
2021/04/30 00:56:47;;;;;;;1.40;1.40;;;;;;;4.28;55.33;101347.06;6315135;28;20188;-73
2021/04/30 00:59:50;;;;;;;1.90;1.60;;;;;;;4.24;56.60;101353.81;6315114;28;20184;-73
2021/04/30 01:02:54;;;;;;;1.53;1.53;;;;;;;4.24;56.37;101349.25;6315006;28;20188;-74
2021/04/30 01:05:58;;;;;;;1.50;1.50;;;;;;;4.25;56.09;101359.06;6313929;28;20237;-74
2021/04/30 01:09:03;;;;;;;1.40;1.40;;;;;;;4.20;56.64;101360.56;6314687;28;20184;-73
2021/04/30 01:12:09;;;;;;;1.50;1.50;;;;;;;4.20;57.33;101357.84;6313400;28;20415;-72
2021/04/30 01:15:14;;;;;;;1.60;1.60;;;;;;;4.24;57.23;101359.19;6314043;28;20274;-73
2021/04/30 01:18:19;;;;;;;1.57;1.57;;;;;;;4.09;58.17;101350.03;6312482;28;20200;-73
2021/04/30 01:21:24;;;;;;;1.50;1.50;;;;;;;3.93;58.72;101355.38;6314433;28;20238;-71
2021/04/30 01:24:28;;;;;;;1.97;1.87;;;;;;;4.00;59.02;101351.03;6314112;28;20216;-72
2021/04/30 01:27:32;;;;;;;1.70;1.60;;;;;;;4.09;59.16;101344.63;6314466;28;20192;-72
2021/04/30 01:30:37;;;;;;;1.50;1.50;;;;;;;4.06;59.44;101342.25;6313421;28;20184;-72
2021/04/30 01:33:40;;;;;;;1.73;1.73;;;;;;;4.07;59.49;101346.66;6313100;28;20207;-72
2021/04/30 01:36:44;;;;;;;1.63;1.53;;;;;;;3.93;59.71;101356.22;6313432;28;20184;-73
2021/04/30 01:39:48;;;;;;;2.20;2.10;;;;;;;3.84;60.18;101345.53;6313599;28;20189;-74
2021/04/30 01:43:00;;;;;;;1.70;1.60;;;;;;;3.92;60.02;101348.28;6313593;28;20191;-72
2021/04/30 01:46:05;;;;;;;4.23;1.87;;;;;;;4.14;59.99;101347.69;6313833;28;20188;-73
2021/04/30 01:49:10;;;;;;;1.50;1.50;;;;;;;3.96;60.69;101341.53;6313496;28;20187;-73
2021/04/30 01:52:13;;;;;;;2.17;1.60;;;;;;;3.93;60.66;101344.59;6312435;28;20184;-73
2021/04/30 01:55:17;;;;;;;1.50;1.50;;;;;;;4.19;60.42;101339.94;6313097;28;20215;-73
2021/04/30 01:58:21;;;;;;;2.40;1.60;;;;;;;4.42;59.53;101346.44;6312216;28;20208;-73
2021/04/30 02:01:24;;;;;;;1.60;1.50;;;;;;;4.47;58.94;101338.66;6312077;28;20537;-73
2021/04/30 02:04:27;;;;;;;1.97;1.57;;;;;;;4.43;59.24;101342.72;6312057;28;20240;-73
2021/04/30 02:07:30;;;;;;;1.80;1.53;;;;;;;4.56;58.61;101340.41;6313098;28;20216;-72
2021/04/30 02:10:35;;;;;;;1.40;1.40;;;;;;;4.56;58.35;101337.69;6311827;28;20525;-72
2021/04/30 02:13:38;;;;;;;1.70;1.70;;;;;;;4.55;58.91;101329.72;6313192;28;20219;-72
2021/04/30 02:16:41;;;;;;;1.60;1.60;;;;;;;4.37;59.19;101332.56;6311723;28;20253;-72
2021/04/30 02:19:44;;;;;;;1.60;1.60;;;;;;;4.38;59.52;101335.13;6312652;28;20365;-73
2021/04/30 02:22:48;;;;;;;1.73;1.73;;;;;;;4.19;60.51;101334.53;6311643;28;20313;-72
2021/04/30 02:25:52;;;;;;;1.50;1.50;;;;;;;4.08;60.84;101321.34;6311892;28;20236;-72
2021/04/30 02:28:55;;;;;;;1.60;1.60;;;;;;;4.25;60.68;101329.34;6311512;28;20202;-73
2021/04/30 02:31:58;;;;;;;1.50;1.50;;;;;;;4.02;60.34;101338.19;6312402;28;20186;-73
2021/04/30 02:35:04;;;;;;;5.23;1.80;;;;;;;4.03;61.08;101334.50;6312512;28;20260;-72
2021/04/30 02:38:11;;;;;;;2.63;1.83;;;;;;;4.12;61.23;101338.91;6312524;28;20186;-73
2021/04/30 02:41:15;;;;;;;1.47;1.43;;;;;;;4.05;61.93;101337.88;6312166;28;20184;-72
2021/04/30 02:44:18;;;;;;;3.63;1.83;;;;;;;4.36;60.96;101330.91;6312266;28;20189;-73
2021/04/30 02:47:29;;;;;;;4.00;1.70;;;;;;;4.41;59.89;101323.16;6312230;28;20185;-73
2021/04/30 02:50:32;;;;;;;3.37;2.00;;;;;;;4.67;59.42;101331.13;6311236;28;20221;-73
2021/04/30 02:53:39;;;;;;;1.77;1.67;;;;;;;4.54;60.55;101318.09;6312657;28;20188;-73
2021/04/30 02:56:43;;;;;;;2.53;2.00;;;;;;;4.42;60.83;101324.81;6310106;28;20222;-73
2021/04/30 02:59:47;;;;;;;3.53;1.80;;;;;;;4.07;61.90;101336.72;6312124;28;20193;-72
2021/04/30 03:02:51;;;;;;;2.13;1.70;;;;;;;3.87;63.48;101323.63;6311006;28;20216;-74
2021/04/30 03:05:55;;;;;;;3.30;2.00;;;;;;;4.26;61.69;101324.78;6310025;28;20265;-74
2021/04/30 03:08:59;;;;;;;1.80;1.70;;;;;;;4.36;61.14;101325.50;6311930;28;20250;-73
2021/04/30 03:12:04;;;;;;;5.90;1.90;;;;;;;4.47;61.00;101330.56;6311812;28;20223;-73
2021/04/30 03:15:12;;;;;;;5.50;1.90;;;;;;;4.46;60.65;101320.78;6312063;28;20253;-72
2021/04/30 03:18:18;;;;;;;6.90;2.07;;;;;;;4.50;60.43;101316.72;6311799;28;20193;-73
2021/04/30 03:21:21;;;;;;;7.40;2.00;;;;;;;4.41;61.27;101328.53;6311867;28;20193;-73
2021/04/30 03:24:24;;;;;;;9.03;2.10;;;;;;;4.51;60.42;101318.44;6311050;28;20224;-73
2021/04/30 03:27:28;;;;;;;2.93;2.10;;;;;;;4.45;60.48;101335.31;6310973;28;20410;-73
2021/04/30 03:30:31;;;;;;;4.83;1.93;;;;;;;4.42;61.56;101322.13;6311428;28;20190;-73
2021/04/30 03:33:34;;;;;;;5.27;2.30;;;;;;;4.47;61.31;101322.47;6310547;28;20412;-73
2021/04/30 03:36:38;;;;;;;1.90;1.80;;;;;;;4.38;61.64;101323.47;6310456;28;20470;-73
2021/04/30 03:39:41;;;;;;;5.67;2.27;;;;;;;3.86;64.52;101324.63;6315773;28;20244;-73
2021/04/30 03:42:45;;;;;;;2.07;1.97;;;;;;;4.21;63.68;101332.53;6316786;28;20224;-72
2021/04/30 03:45:50;;;;;;;2.20;2.10;;;;;;;4.29;62.45;101335.25;6315788;28;20220;-72
2021/04/30 03:48:53;;;;;;;2.43;2.13;;;;;;;4.43;62.90;101321.13;6316405;28;20186;-73
2021/04/30 03:51:57;;;;;;;2.47;1.60;;;;;;;3.76;65.24;101328.31;6316511;28;20184;-72
2021/04/30 03:55:00;;;;;;;1.73;1.63;;;;;;;3.92;64.73;101337.47;6315116;28;20246;-73
2021/04/30 03:58:05;;;;;;;2.00;2.00;;;;;;;3.87;65.20;101340.69;6316162;28;20195;-74
2021/04/30 04:01:09;;;;;;;1.50;1.50;;;;;;;3.78;64.94;101331.69;6315979;28;20197;-72
2021/04/30 04:04:12;;;;;;;1.60;1.50;;;;;;;3.64;65.92;101335.00;6315851;28;20269;-73
2021/04/30 04:07:18;;;;;;;1.70;1.60;;;;;;;3.80;64.97;101332.34;6316211;28;20188;-73
2021/04/30 04:10:21;;;;;;;1.80;1.70;;;;;;;3.70;66.17;101336.19;6314795;28;20226;-73
2021/04/30 04:13:26;;;;;;;1.73;1.73;;;;;;;3.89;65.04;101343.19;6316037;28;20187;-73
2021/04/30 04:16:29;;;;;;;2.20;1.83;;;;;;;3.96;65.14;101337.00;6315143;28;20210;-74
2021/04/30 04:19:32;;;;;;;1.60;1.60;;;;;;;3.93;64.45;101329.22;6316032;28;20184;-74
2021/04/30 04:22:36;;;;;;;1.97;1.50;;;;;;;3.88;64.60;101336.94;6315853;28;20198;-73
2021/04/30 04:25:39;;;;;;;4.77;1.70;;;;;;;3.58;65.07;101291.59;6315471;28;20189;-74
2021/04/30 04:28:45;;;;;;;1.57;1.53;;;;;;;4.06;64.48;101337.72;6314382;28;20239;-73
2021/04/30 04:31:48;;;;;;;1.47;1.47;;;;;;;4.17;64.18;101336.56;6314688;28;20449;-73
2021/04/30 04:34:52;;;;;;;1.57;1.50;;;;;;;4.28;63.65;101339.84;6314010;28;20208;-74
2021/04/30 04:37:56;;;;;;;2.83;1.67;;;;;;;4.29;63.10;101340.66;6314085;28;20184;-73
2021/04/30 04:40:59;;;;;;;1.83;1.73;;;;;;;4.46;63.42;101342.41;6315220;28;20250;-73
2021/04/30 04:44:03;;;;;;;1.67;1.67;;;;;;;4.09;63.13;101339.22;6314893;28;20354;-73
2021/04/30 04:47:08;;;;;;;1.40;1.40;;;;;;;4.13;61.74;101344.16;6315105;28;20189;-73
2021/04/30 04:50:13;;;;;;;1.80;1.70;;;;;;;4.31;62.08;101349.47;6313865;28;20474;-73
2021/04/30 04:53:16;;;;;;;1.83;1.73;;;;;;;4.53;61.89;101343.44;6315193;28;20191;-73
2021/04/30 04:56:24;;;;;;;2.00;2.00;;;;;;;4.44;61.07;101344.44;6315123;28;20208;-73
2021/04/30 04:59:28;;;;;;;1.70;1.60;;;;;;;4.44;60.53;101320.13;6313703;28;20531;-73
2021/04/30 05:02:31;;;;;;;1.90;1.80;;;;;;;4.56;61.27;101342.25;6313808;28;20470;-73
2021/04/30 05:05:35;;;;;;;3.43;1.80;;;;;;;4.63;60.74;101343.28;6315290;28;20240;-72
2021/04/30 05:08:39;;;;;;;3.40;1.50;;;;;;;4.61;59.41;101335.34;6320526;28;20361;-73
2021/04/30 05:11:42;;;;;;;1.93;1.83;;;;;;;4.64;60.09;101340.41;6319282;28;20189;-73
2021/04/30 05:14:46;;;;;;;7.87;1.57;;;;;;;4.77;59.18;101335.38;6314368;28;20187;-73
2021/04/30 05:17:50;;;;;;;2.00;1.90;;;;;;;4.92;58.36;101344.50;6313942;28;20186;-72
2021/04/30 05:20:54;;;;;;;6.17;1.97;;;;;;;4.96;59.02;101342.28;6314347;28;20317;-73
2021/04/30 05:23:59;;;;;;;3.83;1.47;;;;;;;4.93;56.48;101346.19;6314233;28;20185;-73
2021/04/30 05:27:04;;;;;;;2.30;1.30;;;;;;;4.89;55.26;101349.41;6314296;28;20188;-73
2021/04/30 05:30:11;;;;;;;3.90;1.43;;;;;;;4.98;55.66;101311.34;6313533;28;20185;-72
2021/04/30 05:33:14;;;;;;;3.10;1.57;;;;;;;5.05;53.54;101344.84;6313763;28;20193;-73
2021/04/30 05:36:18;;;;;;;6.17;1.63;;;;;;;5.06;52.65;101345.66;6312466;28;20237;-73
2021/04/30 05:39:21;;;;;;;1.40;1.40;;;;;;;5.18;51.95;101338.06;6313695;28;20192;-73
2021/04/30 05:42:24;;;;;;;4.03;1.30;;;;;;;5.20;50.24;101344.16;6312256;28;20187;-73
2021/04/30 05:45:28;;;;;;;1.43;1.40;;;;;;;5.16;51.05;101345.53;6313446;28;20195;-73
2021/04/30 05:48:32;;;;;;;4.20;1.60;;;;;;;5.33;51.03;101348.03;6312986;28;20197;-72
2021/04/30 05:51:35;;;;;;;1.63;1.63;;;;;;;5.46;51.82;101347.53;6312086;28;20557;-73
2021/04/30 05:54:38;;;;;;;3.10;1.47;;;;;;;5.50;49.95;101343.44;6313065;28;20194;-73
2021/04/30 05:57:41;;;;;;;3.70;1.30;;;;;;;5.42;49.25;101346.16;6313107;28;20240;-73
2021/04/30 06:00:46;;;;;;;3.60;1.30;;;;;;;5.52;48.46;101352.25;6313359;28;20257;-73
2021/04/30 06:03:49;;;;;;;1.17;1.17;;;;;;;5.50;48.52;101348.84;6312074;28;20202;-73
2021/04/30 06:06:53;;;;;;;2.23;0.97;;;;;;;5.60;47.69;101354.91;6312815;28;20225;-73
2021/04/30 06:09:56;;;;;;;1.10;1.10;;;;;;;5.78;48.26;101357.44;6312900;28;20186;-74
2021/04/30 06:13:03;;;;;;;1.10;1.10;;;;;;;6.01;48.09;101343.00;6312186;28;20254;-74
2021/04/30 06:16:07;;;;;;;1.27;1.20;;;;;;;5.94;47.15;101342.00;6312895;28;20293;-73
2021/04/30 06:19:13;;;;;;;1.80;0.90;;;;;;;5.96;46.25;101328.28;6312875;28;20193;-77
2021/04/30 06:22:16;;;;;;;4.00;1.00;;;;;;;6.19;46.89;101335.47;6312844;28;20193;-74
2021/04/30 06:25:20;;;;;;;2.53;1.20;;;;;;;6.35;46.13;101344.53;6311479;28;20251;-73
2021/04/30 06:28:28;;;;;;;1.33;1.20;;;;;;;6.53;45.34;101347.81;6312476;28;20340;-73
2021/04/30 06:31:32;;;;;;;5.03;1.30;;;;;;;6.64;44.10;101344.72;6311662;28;20263;-72
2021/04/30 06:34:36;;;;;;;1.10;1.10;;;;;;;6.65;41.77;101339.09;6312380;28;20183;-73
2021/04/30 06:37:39;;;;;;;1.00;1.00;;;;;;;6.69;42.23;101336.88;6311129;28;20238;-73
2021/04/30 06:40:42;;;;;;;1.20;1.20;;;;;;;6.89;42.52;101348.94;6311218;28;20247;-73
2021/04/30 06:43:46;;;;;;;0.90;0.90;;;;;;;6.98;40.31;101337.00;6312380;28;20221;-73
2021/04/30 06:46:50;;;;;;;1.00;1.00;;;;;;;7.04;39.83;101333.56;6311745;28;20258;-73
2021/04/30 06:49:53;;;;;;;4.80;1.00;;;;;;;7.30;40.74;101325.88;6311995;28;20213;-73
2021/04/30 06:52:56;;;;;;;0.90;0.90;;;;;;;7.14;39.74;101293.44;6310886;28;20464;-73
2021/04/30 06:56:00;;;;;;;3.40;0.80;;;;;;;7.31;39.29;101333.00;6311161;28;20214;-74
2021/04/30 06:59:03;;;;;;;1.10;1.00;;;;;;;7.61;40.09;101341.16;6311949;28;20215;-73
2021/04/30 07:02:08;;;;;;;4.63;1.00;;;;;;;7.51;39.83;101334.16;6311837;28;20246;-73
2021/04/30 07:05:13;;;;;;;2.97;1.07;;;;;;;7.58;40.34;101335.09;6312339;28;20237;-73
2021/04/30 07:08:16;;;;;;;1.07;1.07;;;;;;;7.62;40.39;101338.28;6312884;28;20183;-73
2021/04/30 07:11:19;;;;;;;1.00;1.00;;;;;;;7.74;40.76;101334.06;6312631;28;20250;-74
2021/04/30 07:14:23;;;;;;;2.28;1.00;;;;;;;7.82;41.17;101325.00;6312039;28;20190;-73
2021/04/30 07:17:27;;;;;;;1.27;1.20;;;;;;;7.95;41.22;101330.63;6310730;28;20406;-73
2021/04/30 07:20:31;;;;;;;1.17;1.10;;;;;;;7.81;40.67;101323.28;6310783;28;20229;-74
2021/04/30 07:23:34;;;;;;;1.00;1.00;;;;;;;7.79;40.45;101330.78;6311823;28;20190;-73
2021/04/30 07:26:38;;;;;;;1.15;1.10;;;;;;;7.94;41.05;101331.63;6311365;28;20187;-74
2021/04/30 07:29:41;;;;;;;8.30;1.20;;;;;;;7.84;41.97;101322.91;6310909;28;20255;-73
2021/04/30 07:32:45;;;;;;;13.38;1.63;;;;;;;7.98;43.46;101320.22;6311880;28;20222;-73
2021/04/30 07:36:09;;;;;;;1.00;0.90;;;;;;;8.11;43.63;101322.28;6311595;28;20211;-73
2021/04/30 07:39:12;;;;;;;1.30;1.20;;;;;;;8.13;42.18;101306.63;6311613;28;20215;-74
2021/04/30 07:42:15;;;;;;;1.02;1.02;;;;;;;8.24;42.80;101317.00;6310536;28;20183;-73
2021/04/30 07:45:18;;;;;;;8.95;1.30;;;;;;;8.24;43.93;101325.16;6310498;28;20187;-73
2021/04/30 07:48:23;;;;;;;4.60;1.45;;;;;;;8.28;44.18;101310.19;6311509;28;20187;-73
2021/04/30 07:51:31;;;;;;;1.27;1.27;;;;;;;8.26;43.95;101323.09;6311832;28;20194;-73
2021/04/30 07:54:34;;;;;;;1.10;1.10;;;;;;;8.26;44.02;101317.66;6311396;28;20183;-73
2021/04/30 07:57:38;;;;;;;1.10;1.10;;;;;;;8.31;44.37;101304.38;6309764;28;20439;-73
2021/04/30 08:00:42;;;;;;;1.33;1.23;;;;;;;8.30;43.65;101318.13;6311354;28;20183;-73
2021/04/30 08:03:46;;;;;;;1.75;1.10;;;;;;;8.35;44.15;101315.69;6311236;28;20266;-73
2021/04/30 08:06:49;;;;;;;1.20;1.20;;;;;;;8.43;44.41;101319.13;6311882;28;20241;-73
2021/04/30 08:09:54;;;;;;;1.20;1.20;;;;;;;8.50;43.96;101314.59;6311478;28;20175;-74
2021/04/30 08:12:57;;;;;;;3.90;1.25;;;;;;;8.64;43.04;101311.00;6310835;28;20234;-73
2021/04/30 08:16:00;;;;;;;;;;;;;;;8.52;43.79;101328.88;6312115;28;19975;-73
2021/04/30 08:19:04;;;;;;;;;;;;;;;8.63;42.65;101314.75;6311855;28;19923;-73
2021/04/30 08:22:08;;;;;;;;;;;;;;;8.66;42.20;101319.81;6310795;28;19916;-73
2021/04/30 08:25:12;;;;;;;;;;;;;;;8.74;42.40;101311.53;6312921;28;20114;-73
2021/04/30 08:28:16;;;;;;;;;;;;;;;8.72;41.94;101319.06;6315139;28;20089;-73
2021/04/30 08:31:21;;;;;;;;;;;;;;;8.78;40.58;101318.25;6315357;28;20081;-72
2021/04/30 08:34:25;;;;;;;;;;;;;;;8.77;40.33;101305.72;6316283;28;19916;-73
2021/04/30 08:37:46;;;;;;;;;;;;;;;8.81;40.84;101296.13;6316152;28;20001;-74
2021/04/30 08:40:49;;;;;;;7.45;1.50;;;;;;;8.79;40.55;101309.06;6315634;28;19916;-74
2021/04/30 08:43:53;;;;;;;2.15;0.82;;;;;;;8.70;38.06;101314.84;6315362;28;20251;-73
2021/04/30 08:46:56;;;;;;;2.28;1.00;;;;;;;8.69;37.58;101308.56;6315566;28;20192;-73
2021/04/30 08:50:00;;;;;;;2.97;1.13;;;;;;;8.63;38.40;101303.88;6313011;28;20206;-72
2021/04/30 08:53:05;;;;;;;3.22;1.30;;;;;;;8.76;39.24;101304.03;6314617;28;20191;-74
2021/04/30 08:56:11;;;;;;;2.15;1.42;;;;;;;8.74;39.67;101303.38;6315043;28;20211;-72
2021/04/30 08:59:15;;;;;;;1.40;1.40;;;;;;;8.78;37.57;101306.56;6315209;28;20190;-73
2021/04/30 09:02:18;;;;;;;1.45;1.02;;;;;;;8.83;36.78;101310.34;6315138;28;20183;-74
2021/04/30 09:05:25;;;;;;;3.05;1.30;;;;;;;8.79;36.93;101303.63;6313854;28;20311;-72
2021/04/30 09:08:29;;;;;;;1.17;1.10;;;;;;;8.61;37.97;101278.75;6314795;28;20192;-72
2021/04/30 09:11:48;;;;;;;1.20;1.20;;;;;;;8.87;36.63;101290.94;6313633;28;20490;-72
2021/04/30 09:14:51;;;;;;;1.98;1.02;;;;;;;8.88;36.00;101279.03;6312642;28;20419;-73
2021/04/30 09:17:59;;;;;;;2.38;1.25;;;;;;;9.10;35.59;101278.81;6314589;28;20223;-73
2021/04/30 09:21:09;;;;;;;;;;;;;;;9.09;34.83;101281.72;6315198;28;20081;-73
2021/04/30 09:24:14;;;;;;;;;;;;;;;9.09;34.70;101287.19;6314200;28;19923;-73
2021/04/30 09:27:28;;;;;;;;;;;;;;;9.13;34.19;101293.91;6314461;28;19916;-73
2021/04/30 09:30:32;;;;;;;;;;;;;;;8.94;34.10;101283.66;6313525;28;20166;-73
2021/04/30 09:33:35;;;;;;;;;;;;;;;8.90;34.22;101276.94;6313362;28;20085;-73
2021/04/30 09:36:53;;;;;;;;;;;;;;;8.96;33.80;101276.16;6313904;28;19916;-72
2021/04/30 09:39:57;;;;;;;;;;;;;;;8.92;33.96;101269.41;6313333;28;20190;-73
2021/04/30 09:43:02;;;;;;;;;;;;;;;8.99;34.41;101278.50;6314109;28;19923;-73
2021/04/30 09:46:20;;;;;;;;;;;;;;;9.10;33.84;101267.06;6313413;28;19954;-73
2021/04/30 09:49:23;;;;;;;;;;;;;;;9.16;33.69;101271.72;6313111;28;20301;-74
2021/04/30 09:52:27;;;;;;;;;;;;;;;9.25;33.59;101265.09;6312970;28;20218;-74
2021/04/30 09:55:47;;;;;;;;;;;;;;;9.33;34.28;101276.69;6314181;28;19962;-72
2021/04/30 09:58:50;;;;;;;5.03;1.40;;;;;;;9.14;33.84;101290.16;6312425;28;20209;-74
2021/04/30 10:02:17;;;;;;;1.30;1.20;;;;;;;9.14;33.94;101284.69;6313590;28;20190;-73
2021/04/30 10:05:22;;;;;;;5.53;1.33;;;;;;;9.30;34.09;101278.94;6312694;28;20236;-73
2021/04/30 10:08:41;;;;;;;2.20;0.98;;;;;;;9.17;32.58;101265.22;6312132;28;20383;-73
2021/04/30 10:11:46;;;;;;;1.23;1.20;;;;;;;9.22;33.35;101254.59;6313211;28;20205;-75
2021/04/30 10:14:50;;;;;;;7.40;6.70;;;;;;;9.24;32.49;101228.03;6312976;28;20184;-74
2021/04/30 10:17:55;;;;;;;2.58;2.47;;;;;;;9.51;33.00;101269.88;6311020;28;20227;-73
2021/04/30 10:20:59;;;;;;;5.88;2.30;;;;;;;9.58;33.19;101254.44;6312776;28;20237;-73
2021/04/30 10:24:02;;;;;;;1.20;1.20;;;;;;;9.63;33.43;101252.78;6312618;28;20188;-73
2021/04/30 10:27:25;;;;;;;1.13;1.13;;;;;;;9.55;31.89;101261.13;6311744;28;20449;-73
2021/04/30 10:30:35;;;;;;;2.05;1.10;;;;;;;9.63;33.05;101265.56;6312100;28;20191;-73
2021/04/30 10:33:44;;;;;;;1.10;1.00;;;;;;;9.57;32.29;101269.09;6312472;28;20206;-77
2021/04/30 10:36:52;;;;;;;1.85;1.10;;;;;;;8.86;32.81;101155.94;6312955;28;20239;-74
2021/04/30 10:39:58;;;;;;;1.05;1.05;;;;;;;9.61;32.08;101260.31;6311559;28;20542;-73
2021/04/30 10:43:16;;;;;;;;;;;;;;;9.69;32.41;101268.31;6313329;28;20076;-73
2021/04/30 10:46:23;;;;;;;;;;;;;;;9.67;31.02;101264.97;6311668;28;20281;-73
2021/04/30 10:49:25;;;;;;;;;;;;;;;9.70;31.59;101259.13;6311416;28;20195;-73
2021/04/30 10:52:28;;;;;;;;;;;;;;;9.87;31.11;101268.63;6312174;28;20222;-74
2021/04/30 10:55:39;;;;;;;2.55;1.42;;;;;;;9.86;30.77;101268.84;6310511;28;20230;-74
2021/04/30 10:58:43;;;;;;;3.30;1.10;;;;;;;9.66;30.82;101268.72;6312196;28;20212;-74
2021/04/30 11:01:51;;;;;;;5.38;1.17;;;;;;;9.80;30.88;101270.50;6311134;28;20357;-74
2021/04/30 11:05:13;;;;;;;3.83;1.35;;;;;;;9.91;29.96;101267.19;6309743;28;20574;-74
2021/04/30 11:08:17;;;;;;;1.30;1.30;;;;;;;9.89;29.91;101258.38;6311330;28;20199;-74
2021/04/30 11:11:32;;;;;;;1.10;1.10;;;;;;;9.92;29.24;101260.69;6312404;28;20174;-74
2021/04/30 11:14:38;;;;;;;4.93;1.40;;;;;;;9.78;29.90;101267.13;6312329;28;20183;-74
2021/04/30 11:17:53;;;;;;;1.00;1.00;;;;;;;9.61;29.56;101254.84;6311794;28;20239;-73
2021/04/30 11:21:02;;;;;;;1.40;1.40;;;;;;;9.90;29.84;101270.97;6310671;28;20187;-73
2021/04/30 11:24:33;;;;;;;6.32;1.00;;;;;;;10.02;28.69;101258.44;6311132;28;20271;-73
2021/04/30 11:27:37;;;;;;;0.90;0.90;;;;;;;10.11;29.32;101266.44;6311386;28;20195;-74
2021/04/30 11:30:40;;;;;;;1.20;1.20;;;;;;;10.17;28.74;101262.94;6310813;28;20426;-73
2021/04/30 11:33:46;;;;;;;1.00;1.00;;;;;;;10.16;28.86;101269.44;6311428;28;20183;-73
2021/04/30 11:36:56;;;;;;;1.17;1.17;;;;;;;10.15;29.29;101267.72;6310771;28;20443;-74
2021/04/30 11:40:00;;;;;;;0.80;0.80;;;;;;;10.19;30.34;101279.94;6311803;28;20184;-74
2021/04/30 11:43:09;;;;;;;0.90;0.90;;;;;;;10.21;29.46;101256.03;6311051;28;20195;-74
2021/04/30 11:46:12;;;;;;;3.60;0.90;;;;;;;10.18;29.32;101259.16;6314475;28;20045;-73
2021/04/30 11:49:19;;;;;;;1.75;0.90;;;;;;;10.24;29.84;101258.34;6315399;28;20194;-73
2021/04/30 11:52:28;;;;;;;4.40;0.90;;;;;;;10.29;29.81;101269.47;6312885;28;20184;-73
2021/04/30 11:55:40;;;;;;;1.05;1.05;;;;;;;10.29;29.08;101269.47;6310783;28;20375;-73
2021/04/30 11:58:44;;;;;;;5.65;1.20;;;;;;;10.22;28.67;101263.16;6313202;28;20211;-74
2021/04/30 12:02:01;;;;;;;2.63;0.93;;;;;;;10.28;29.14;101251.41;6315535;28;20408;-73
2021/04/30 12:05:07;;;;;;;1.10;1.00;;;;;;;10.42;29.58;101266.78;6315906;28;20467;-73
2021/04/30 12:08:15;;;;;;;0.80;0.80;;;;;;;10.49;29.27;101259.47;6316291;28;20188;-73
2021/04/30 12:11:24;;;;;;;4.28;1.10;;;;;;;10.54;28.73;101265.13;6315548;28;20168;-73
2021/04/30 12:14:27;;;;;;;2.35;1.42;;;;;;;10.64;29.07;101258.25;6316238;28;20184;-72
2021/04/30 12:17:34;;;;;;;1.20;1.20;;;;;;;10.72;28.32;101254.47;6316544;28;20107;-73
2021/04/30 12:20:39;;;;;;;1.27;1.27;;;;;;;10.66;28.60;101249.81;6315196;28;20187;-73
2021/04/30 12:23:49;;;;;;;1.90;1.20;;;;;;;10.74;28.73;101262.44;6315960;28;20190;-73
2021/04/30 12:26:52;;;;;;;1.90;1.40;;;;;;;10.68;28.69;101264.13;6315626;28;20187;-72
2021/04/30 12:29:56;;;;;;;1.75;1.20;;;;;;;10.53;29.44;101255.25;6315792;28;20183;-74
2021/04/30 12:33:02;;;;;;;2.22;1.20;;;;;;;10.31;29.05;101253.75;6315315;28;20362;-74
2021/04/30 12:36:11;;;;;;;1.65;1.08;;;;;;;10.38;28.56;101257.31;6314579;28;20459;-73
2021/04/30 12:39:17;;;;;;;3.97;1.58;;;;;;;10.51;28.60;101260.09;6315575;28;20257;-74
2021/04/30 12:42:20;;;;;;;6.40;1.10;;;;;;;10.68;29.23;101258.69;6314537;28;20493;-73
2021/04/30 12:45:24;;;;;;;1.17;0.85;;;;;;;10.74;28.87;101252.38;6314683;28;20255;-73
2021/04/30 12:48:27;;;;;;;2.10;0.90;;;;;;;10.62;28.56;101254.88;6315197;28;20191;-73
2021/04/30 12:51:33;;;;;;;3.08;0.93;;;;;;;10.58;28.93;101230.91;6315262;28;20246;-73
2021/04/30 12:54:36;;;;;;;0.80;0.80;;;;;;;10.64;29.27;101260.13;6313709;28;20462;-73
2021/04/30 12:57:39;;;;;;;3.45;1.00;;;;;;;10.80;29.66;101251.53;6314247;28;20211;-73
2021/04/30 13:00:59;;;;;;;0.90;0.90;;;;;;;10.89;29.57;101254.91;6314812;28;20183;-73
2021/04/30 13:04:03;;;;;;;1.33;1.00;;;;;;;10.99;28.71;101261.63;6314252;28;20270;-73
2021/04/30 13:07:11;;;;;;;1.00;1.00;;;;;;;11.02;28.55;101238.50;6313519;28;20237;-73
2021/04/30 13:10:22;;;;;;;1.02;1.02;;;;;;;11.05;28.48;101260.78;6314183;28;20184;-74
2021/04/30 13:13:25;;;;;;;1.00;1.00;;;;;;;11.02;28.97;101266.66;6314401;28;20183;-74
2021/04/30 13:16:39;;;;;;;;;;;;;;;11.31;28.55;101263.53;6313948;28;20044;-74
2021/04/30 13:19:43;;;;;;;0.90;0.90;;;;;;;11.20;28.31;101264.16;6313656;28;20583;-73
2021/04/30 13:23:01;;;;;;;1.10;1.10;;;;;;;11.10;28.44;101255.53;6314569;28;20280;-73
2021/04/30 13:26:25;;;;;;;1.58;0.80;;;;;;;11.08;29.26;101254.06;6313791;28;20207;-74
2021/04/30 13:29:30;;;;;;;3.00;1.08;;;;;;;10.98;29.94;101249.03;6314409;28;20194;-73
2021/04/30 13:32:33;;;;;;;2.95;0.90;;;;;;;11.12;29.51;101261.63;6313137;28;20191;-74
2021/04/30 13:35:36;;;;;;;2.45;0.90;;;;;;;11.14;29.42;101261.44;6313918;28;20187;-74
2021/04/30 13:38:40;;;;;;;2.83;1.20;;;;;;;10.82;29.25;101252.16;6314045;28;20211;-74
2021/04/30 13:41:43;;;;;;;0.98;0.98;;;;;;;10.93;29.49;101257.00;6312572;28;20207;-73
2021/04/30 13:44:54;;;;;;;3.13;1.10;;;;;;;10.95;29.59;101249.44;6328784;28;20199;-74
2021/04/30 13:47:58;;;;;;;1.45;1.42;;;;;;;11.06;29.46;101251.56;6312846;28;20233;-74
2021/04/30 13:51:01;;;;;;;1.10;1.10;;;;;;;11.27;29.79;101248.59;6313394;28;20191;-73
2021/04/30 13:54:06;;;;;;;1.20;1.20;;;;;;;10.96;29.20;101234.75;6312270;28;20188;-74
2021/04/30 13:57:10;;;;;;;3.10;1.33;;;;;;;11.35;30.13;101249.44;6312236;28;20502;-73
2021/04/30 14:00:15;;;;;;;6.47;1.50;;;;;;;11.53;29.82;101258.63;6313441;28;20215;-73
2021/04/30 14:03:23;;;;;;;1.98;0.95;;;;;;;11.16;30.46;101262.91;6313430;28;20199;-73
2021/04/30 14:06:26;;;;;;;8.13;1.23;;;;;;;11.17;30.09;101261.84;6313250;28;20235;-73
2021/04/30 14:09:30;;;;;;;1.35;1.10;;;;;;;11.00;29.96;101240.63;6312705;28;20194;-72
2021/04/30 14:12:33;;;;;;;1.20;1.20;;;;;;;11.05;29.76;101255.34;6313090;28;20221;-73
2021/04/30 14:15:37;;;;;;;1.10;1.10;;;;;;;11.13;30.23;101257.84;6313080;28;20187;-73
2021/04/30 14:18:40;;;;;;;2.50;1.15;;;;;;;11.13;30.53;101268.78;6313099;28;20282;-75
2021/04/30 14:21:43;;;;;;;1.05;1.05;;;;;;;11.36;30.14;101251.09;6310577;28;20245;-73
2021/04/30 14:24:47;;;;;;;1.48;1.15;;;;;;;11.36;30.09;101251.09;6312385;28;20370;-73
2021/04/30 14:27:50;;;;;;;2.40;1.27;;;;;;;11.25;29.96;101247.97;6312794;28;20188;-74
2021/04/30 14:30:53;;;;;;;3.25;1.10;;;;;;;11.48;29.99;101254.91;6312955;28;20184;-74
2021/04/30 14:33:57;;;;;;;2.83;1.20;;;;;;;11.41;30.07;101254.03;6312686;28;20247;-74
2021/04/30 14:37:01;;;;;;;0.90;0.90;;;;;;;11.47;29.65;101258.66;6312426;28;20183;-73